NCAR-RAP Real-Time Weather Data

Output produced by METARs form (12 August 2020  17:42 UTC)
found at http://weather.rap.ucar.edu/surface/
 
KTYR 121653Z VRB06KT 10SM CLR 33/23 A2999 RMK AO2 SLP145 T03330233
KTYR 121553Z 24009KT 10SM BKN100 31/23 A2999 RMK AO2 SLP146 T03110233
KTYR 121453Z 22009KT 10SM CLR 31/23 A2998 RMK AO2 SLP141 T03060233 51009
KTYR 121353Z 22013G19KT 10SM CLR 29/23 A2998 RMK AO2 SLP141 T02940228
KTYR 121253Z 22011KT 10SM CLR 28/23 A2996 RMK AO2 SLP136 T02780233
KTYR 121153Z 20009KT 10SM CLR 27/23 A2995 RMK AO2 SLP131 T02670233 10294 20267 53004
KTYR 121053Z AUTO 20012KT 10SM CLR 27/23 A2992 RMK AO2 SLP121 T02720228 TSNO
KTYR 120953Z AUTO 19010KT 10SM CLR 28/23 A2993 RMK AO2 SLP126 T02780228 TSNO
KTYR 120853Z AUTO 19010KT 10SM CLR 28/23 A2994 RMK AO2 SLP127 T02830233 55001
KTYR 120753Z AUTO 19009KT 10SM CLR 28/24 A2993 RMK AO2 SLP126 T02830239
KTYR 120653Z AUTO 18011KT 10SM CLR 29/24 A2992 RMK AO2 SLP123 T02890239
KTYR 120553Z AUTO 18009KT 10SM CLR 29/23 A2994 RMK AO2 SLP128 T02940228 10356 20294 403720261 50005
KTYR 120453Z AUTO 16007KT 10SM FEW065 30/22 A2995 RMK AO2 SLP132 T03000217
KTYR 120353Z AUTO 15007KT 10SM BKN070 31/22 A2992 RMK AO2 SLP122 T03060222
KTYR 120253Z AUTO 11004KT 10SM FEW070 32/21 A2992 RMK AO2 SLP123 T03170211 53009
KTYR 120153Z 00000KT 10SM FEW070 32/22 A2992 RMK AO2 SLP122 T03220217
KTYR 120053Z 00000KT 10SM CLR 34/21 A2990 RMK AO2 SLP114 T03440206
KTYR 112353Z 20005KT 10SM CLR 36/19 A2990 RMK AO2 SLP114 T03560194 10372 20333 56011
KTYR 112253Z 25009KT 10SM FEW060 37/20 A2990 RMK AO2 SLP116 T03670200
KTYR 112153Z 21011G15KT 10SM BKN050 37/20 A2991 RMK AO2 SLP117 T03670200
KTYR 112053Z 24008KT 10SM CLR 37/20 A2993 RMK AO2 SLP125 T03670200 56023